sensor_id;sensor_type;location;lat;lon;timestamp;P1;durP1;ratioP1;P2;durP2;ratioP2
71941;SDS011;59997;53.300;-6.260;2023-09-30T00:00:21;11.73;;;1.63;;
71941;SDS011;59997;53.300;-6.260;2023-09-30T00:02:47;14.20;;;1.13;;
71941;SDS011;59997;53.300;-6.260;2023-09-30T00:05:12;10.53;;;1.60;;
71941;SDS011;59997;53.300;-6.260;2023-09-30T00:07:39;11.65;;;1.45;;
71941;SDS011;59997;53.300;-6.260;2023-09-30T00:10:05;6.07;;;1.08;;
71941;SDS011;59997;53.300;-6.260;2023-09-30T00:12:31;8.30;;;0.90;;
71941;SDS011;59997;53.300;-6.260;2023-09-30T00:14:57;13.63;;;0.97;;
71941;SDS011;59997;53.300;-6.260;2023-09-30T00:17:23;11.32;;;1.50;;
71941;SDS011;59997;53.300;-6.260;2023-09-30T00:19:48;10.27;;;1.40;;
71941;SDS011;59997;53.300;-6.260;2023-09-30T00:22:14;11.00;;;1.57;;
71941;SDS011;59997;53.300;-6.260;2023-09-30T00:24:39;11.63;;;2.20;;
71941;SDS011;59997;53.300;-6.260;2023-09-30T00:27:05;11.45;;;1.40;;
71941;SDS011;59997;53.300;-6.260;2023-09-30T00:29:30;11.33;;;1.13;;
71941;SDS011;59997;53.300;-6.260;2023-09-30T00:31:56;15.67;;;1.53;;
71941;SDS011;59997;53.300;-6.260;2023-09-30T00:34:21;13.30;;;1.50;;
71941;SDS011;59997;53.300;-6.260;2023-09-30T00:36:46;14.82;;;2.03;;
71941;SDS011;59997;53.300;-6.260;2023-09-30T00:39:12;12.57;;;1.43;;
71941;SDS011;59997;53.300;-6.260;2023-09-30T00:41:38;13.38;;;1.33;;
71941;SDS011;59997;53.300;-6.260;2023-09-30T00:44:05;10.45;;;1.10;;
71941;SDS011;59997;53.300;-6.260;2023-09-30T00:46:32;12.43;;;1.90;;
71941;SDS011;59997;53.300;-6.260;2023-09-30T00:48:58;17.38;;;1.58;;
71941;SDS011;59997;53.300;-6.260;2023-09-30T00:51:25;14.40;;;1.58;;
71941;SDS011;59997;53.300;-6.260;2023-09-30T00:53:51;14.52;;;1.67;;
71941;SDS011;59997;53.300;-6.260;2023-09-30T00:56:18;9.90;;;1.77;;
71941;SDS011;59997;53.300;-6.260;2023-09-30T00:58:48;18.80;;;2.03;;
71941;SDS011;59997;53.300;-6.260;2023-09-30T01:01:16;11.98;;;1.80;;
71941;SDS011;59997;53.300;-6.260;2023-09-30T01:03:43;11.77;;;1.67;;
71941;SDS011;59997;53.300;-6.260;2023-09-30T01:06:09;13.88;;;1.95;;
71941;SDS011;59997;53.300;-6.260;2023-09-30T01:08:35;11.30;;;1.70;;
71941;SDS011;59997;53.300;-6.260;2023-09-30T01:11:00;11.50;;;1.47;;
71941;SDS011;59997;53.300;-6.260;2023-09-30T01:13:35;9.00;;;2.00;;
71941;SDS011;59997;53.300;-6.260;2023-09-30T01:16:05;10.82;;;1.40;;
71941;SDS011;59997;53.300;-6.260;2023-09-30T01:18:34;10.97;;;1.60;;
71941;SDS011;59997;53.300;-6.260;2023-09-30T01:21:01;13.38;;;1.27;;
71941;SDS011;59997;53.300;-6.260;2023-09-30T01:23:29;14.05;;;1.70;;
71941;SDS011;59997;53.300;-6.260;2023-09-30T01:26:04;8.93;;;1.53;;
71941;SDS011;59997;53.300;-6.260;2023-09-30T01:28:33;10.45;;;1.77;;
71941;SDS011;59997;53.300;-6.260;2023-09-30T01:30:59;12.60;;;1.60;;
71941;SDS011;59997;53.300;-6.260;2023-09-30T01:33:24;10.70;;;1.53;;
71941;SDS011;59997;53.300;-6.260;2023-09-30T01:35:50;10.00;;;1.53;;
71941;SDS011;59997;53.300;-6.260;2023-09-30T01:38:15;13.07;;;1.70;;
71941;SDS011;59997;53.300;-6.260;2023-09-30T01:40:41;12.55;;;1.90;;
71941;SDS011;59997;53.300;-6.260;2023-09-30T01:43:07;10.73;;;1.43;;
71941;SDS011;59997;53.300;-6.260;2023-09-30T01:45:33;12.43;;;1.50;;
71941;SDS011;59997;53.300;-6.260;2023-09-30T01:47:58;13.13;;;1.40;;
71941;SDS011;59997;53.300;-6.260;2023-09-30T01:50:24;12.65;;;1.50;;
71941;SDS011;59997;53.300;-6.260;2023-09-30T01:52:49;14.17;;;1.53;;
71941;SDS011;59997;53.300;-6.260;2023-09-30T01:55:15;12.93;;;1.63;;
71941;SDS011;59997;53.300;-6.260;2023-09-30T01:57:40;11.43;;;1.25;;
71941;SDS011;59997;53.300;-6.260;2023-09-30T02:00:06;13.50;;;1.40;;
71941;SDS011;59997;53.300;-6.260;2023-09-30T02:02:35;13.55;;;1.90;;
71941;SDS011;59997;53.300;-6.260;2023-09-30T02:05:02;15.88;;;1.58;;
71941;SDS011;59997;53.300;-6.260;2023-09-30T02:07:28;10.47;;;2.00;;
71941;SDS011;59997;53.300;-6.260;2023-09-30T02:09:54;12.60;;;2.00;;
71941;SDS011;59997;53.300;-6.260;2023-09-30T02:12:20;14.65;;;1.65;;
71941;SDS011;59997;53.300;-6.260;2023-09-30T02:14:45;13.63;;;1.90;;
71941;SDS011;59997;53.300;-6.260;2023-09-30T02:17:11;9.48;;;1.73;;
71941;SDS011;59997;53.300;-6.260;2023-09-30T02:19:38;13.48;;;1.85;;
71941;SDS011;59997;53.300;-6.260;2023-09-30T02:22:06;11.00;;;1.75;;
71941;SDS011;59997;53.300;-6.260;2023-09-30T02:24:32;13.60;;;1.87;;
71941;SDS011;59997;53.300;-6.260;2023-09-30T02:26:58;14.15;;;1.70;;
71941;SDS011;59997;53.300;-6.260;2023-09-30T02:29:23;13.53;;;1.70;;
71941;SDS011;59997;53.300;-6.260;2023-09-30T02:31:49;12.35;;;1.60;;
71941;SDS011;59997;53.300;-6.260;2023-09-30T02:34:15;13.32;;;1.90;;
71941;SDS011;59997;53.300;-6.260;2023-09-30T02:36:40;10.93;;;1.60;;
71941;SDS011;59997;53.300;-6.260;2023-09-30T02:39:07;11.57;;;1.70;;
71941;SDS011;59997;53.300;-6.260;2023-09-30T02:41:36;7.30;;;1.20;;
71941;SDS011;59997;53.300;-6.260;2023-09-30T02:44:02;10.50;;;1.70;;
71941;SDS011;59997;53.300;-6.260;2023-09-30T02:46:28;8.55;;;1.38;;
71941;SDS011;59997;53.300;-6.260;2023-09-30T02:48:54;13.70;;;2.10;;
71941;SDS011;59997;53.300;-6.260;2023-09-30T02:51:20;13.37;;;1.53;;
71941;SDS011;59997;53.300;-6.260;2023-09-30T02:53:45;10.90;;;1.37;;
71941;SDS011;59997;53.300;-6.260;2023-09-30T02:56:13;8.45;;;1.73;;
71941;SDS011;59997;53.300;-6.260;2023-09-30T02:58:39;10.48;;;1.50;;
71941;SDS011;59997;53.300;-6.260;2023-09-30T03:01:05;14.68;;;1.73;;
71941;SDS011;59997;53.300;-6.260;2023-09-30T03:03:32;10.90;;;1.70;;
71941;SDS011;59997;53.300;-6.260;2023-09-30T03:05:58;14.82;;;1.70;;
71941;SDS011;59997;53.300;-6.260;2023-09-30T03:08:25;15.00;;;1.50;;
71941;SDS011;59997;53.300;-6.260;2023-09-30T03:10:51;12.73;;;1.50;;
71941;SDS011;59997;53.300;-6.260;2023-09-30T03:13:17;14.25;;;1.50;;
71941;SDS011;59997;53.300;-6.260;2023-09-30T03:15:43;11.97;;;1.50;;
71941;SDS011;59997;53.300;-6.260;2023-09-30T03:18:09;8.40;;;1.33;;
71941;SDS011;59997;53.300;-6.260;2023-09-30T03:20:35;6.68;;;1.10;;
71941;SDS011;59997;53.300;-6.260;2023-09-30T03:23:05;10.15;;;1.38;;
71941;SDS011;59997;53.300;-6.260;2023-09-30T03:25:30;11.80;;;1.77;;
71941;SDS011;59997;53.300;-6.260;2023-09-30T03:27:56;12.87;;;1.23;;
71941;SDS011;59997;53.300;-6.260;2023-09-30T03:30:22;7.57;;;1.00;;
71941;SDS011;59997;53.300;-6.260;2023-09-30T03:32:47;7.37;;;1.10;;
71941;SDS011;59997;53.300;-6.260;2023-09-30T03:35:13;10.73;;;1.45;;
71941;SDS011;59997;53.300;-6.260;2023-09-30T03:37:42;11.60;;;1.27;;
71941;SDS011;59997;53.300;-6.260;2023-09-30T03:40:09;10.90;;;1.63;;
71941;SDS011;59997;53.300;-6.260;2023-09-30T03:42:42;12.93;;;1.27;;
71941;SDS011;59997;53.300;-6.260;2023-09-30T03:45:08;13.20;;;1.50;;
71941;SDS011;59997;53.300;-6.260;2023-09-30T03:47:37;10.82;;;1.30;;
71941;SDS011;59997;53.300;-6.260;2023-09-30T03:50:03;9.03;;;1.30;;
71941;SDS011;59997;53.300;-6.260;2023-09-30T03:52:33;13.13;;;1.30;;
71941;SDS011;59997;53.300;-6.260;2023-09-30T03:54:59;9.48;;;1.10;;
71941;SDS011;59997;53.300;-6.260;2023-09-30T03:57:29;9.98;;;1.25;;
71941;SDS011;59997;53.300;-6.260;2023-09-30T03:59:56;12.15;;;1.33;;
71941;SDS011;59997;53.300;-6.260;2023-09-30T04:02:22;8.00;;;1.03;;
71941;SDS011;59997;53.300;-6.260;2023-09-30T04:04:47;7.65;;;0.93;;
71941;SDS011;59997;53.300;-6.260;2023-09-30T04:07:16;11.57;;;1.17;;
71941;SDS011;59997;53.300;-6.260;2023-09-30T04:09:42;13.98;;;1.20;;
71941;SDS011;59997;53.300;-6.260;2023-09-30T04:12:07;8.02;;;1.27;;
71941;SDS011;59997;53.300;-6.260;2023-09-30T04:14:33;12.13;;;1.47;;
71941;SDS011;59997;53.300;-6.260;2023-09-30T04:16:58;9.90;;;1.47;;
71941;SDS011;59997;53.300;-6.260;2023-09-30T04:19:24;11.43;;;1.33;;
71941;SDS011;59997;53.300;-6.260;2023-09-30T04:21:49;10.17;;;1.50;;
71941;SDS011;59997;53.300;-6.260;2023-09-30T04:24:15;10.60;;;1.40;;
71941;SDS011;59997;53.300;-6.260;2023-09-30T04:26:41;8.87;;;1.27;;
71941;SDS011;59997;53.300;-6.260;2023-09-30T04:29:06;12.83;;;1.37;;
71941;SDS011;59997;53.300;-6.260;2023-09-30T04:31:36;13.55;;;1.08;;
71941;SDS011;59997;53.300;-6.260;2023-09-30T04:34:03;12.73;;;1.10;;
71941;SDS011;59997;53.300;-6.260;2023-09-30T04:36:29;10.07;;;1.10;;
71941;SDS011;59997;53.300;-6.260;2023-09-30T04:38:55;6.83;;;1.00;;
71941;SDS011;59997;53.300;-6.260;2023-09-30T04:41:21;9.45;;;1.20;;
71941;SDS011;59997;53.300;-6.260;2023-09-30T04:43:47;11.33;;;1.40;;
71941;SDS011;59997;53.300;-6.260;2023-09-30T04:46:13;14.32;;;1.80;;
71941;SDS011;59997;53.300;-6.260;2023-09-30T04:48:39;10.13;;;1.40;;
71941;SDS011;59997;53.300;-6.260;2023-09-30T04:51:08;10.43;;;1.40;;
71941;SDS011;59997;53.300;-6.260;2023-09-30T04:53:33;12.18;;;1.40;;
71941;SDS011;59997;53.300;-6.260;2023-09-30T04:55:59;10.40;;;1.20;;
71941;SDS011;59997;53.300;-6.260;2023-09-30T04:58:25;11.70;;;1.40;;
71941;SDS011;59997;53.300;-6.260;2023-09-30T05:00:50;7.93;;;1.20;;
71941;SDS011;59997;53.300;-6.260;2023-09-30T05:03:16;9.93;;;1.20;;
71941;SDS011;59997;53.300;-6.260;2023-09-30T05:05:41;10.47;;;1.17;;
71941;SDS011;59997;53.300;-6.260;2023-09-30T05:08:07;9.43;;;0.90;;
71941;SDS011;59997;53.300;-6.260;2023-09-30T05:10:33;10.13;;;1.20;;
71941;SDS011;59997;53.300;-6.260;2023-09-30T05:12:59;13.80;;;1.25;;
71941;SDS011;59997;53.300;-6.260;2023-09-30T05:15:24;10.97;;;1.03;;
71941;SDS011;59997;53.300;-6.260;2023-09-30T05:17:50;12.85;;;1.20;;
71941;SDS011;59997;53.300;-6.260;2023-09-30T05:20:16;9.73;;;1.20;;
71941;SDS011;59997;53.300;-6.260;2023-09-30T05:22:42;8.77;;;1.23;;
71941;SDS011;59997;53.300;-6.260;2023-09-30T05:25:11;11.55;;;1.42;;
71941;SDS011;59997;53.300;-6.260;2023-09-30T05:27:37;9.68;;;1.42;;
71941;SDS011;59997;53.300;-6.260;2023-09-30T05:30:03;8.37;;;1.10;;
71941;SDS011;59997;53.300;-6.260;2023-09-30T05:32:31;11.75;;;1.02;;
71941;SDS011;59997;53.300;-6.260;2023-09-30T05:34:57;9.63;;;1.03;;
71941;SDS011;59997;53.300;-6.260;2023-09-30T05:37:23;9.82;;;1.20;;
71941;SDS011;59997;53.300;-6.260;2023-09-30T05:39:50;8.55;;;1.13;;
71941;SDS011;59997;53.300;-6.260;2023-09-30T05:42:16;6.80;;;1.00;;
71941;SDS011;59997;53.300;-6.260;2023-09-30T05:44:41;9.50;;;1.30;;
71941;SDS011;59997;53.300;-6.260;2023-09-30T05:47:08;9.10;;;1.15;;
71941;SDS011;59997;53.300;-6.260;2023-09-30T05:49:33;9.67;;;1.17;;
71941;SDS011;59997;53.300;-6.260;2023-09-30T05:51:59;10.35;;;0.95;;
71941;SDS011;59997;53.300;-6.260;2023-09-30T05:54:24;8.50;;;1.10;;
71941;SDS011;59997;53.300;-6.260;2023-09-30T05:56:50;9.63;;;0.97;;
71941;SDS011;59997;53.300;-6.260;2023-09-30T05:59:15;15.40;;;1.30;;
71941;SDS011;59997;53.300;-6.260;2023-09-30T06:01:41;10.07;;;1.20;;
71941;SDS011;59997;53.300;-6.260;2023-09-30T06:04:07;8.90;;;1.17;;
71941;SDS011;59997;53.300;-6.260;2023-09-30T06:06:33;7.23;;;0.90;;
71941;SDS011;59997;53.300;-6.260;2023-09-30T06:08:59;11.25;;;1.20;;
71941;SDS011;59997;53.300;-6.260;2023-09-30T06:11:24;8.30;;;0.87;;
71941;SDS011;59997;53.300;-6.260;2023-09-30T06:13:56;9.90;;;0.93;;
71941;SDS011;59997;53.300;-6.260;2023-09-30T06:16:26;10.20;;;0.90;;
71941;SDS011;59997;53.300;-6.260;2023-09-30T06:18:52;8.20;;;0.90;;
71941;SDS011;59997;53.300;-6.260;2023-09-30T06:21:18;10.87;;;0.80;;
71941;SDS011;59997;53.300;-6.260;2023-09-30T06:23:48;10.73;;;0.75;;
71941;SDS011;59997;53.300;-6.260;2023-09-30T06:26:22;7.68;;;0.82;;
71941;SDS011;59997;53.300;-6.260;2023-09-30T06:28:49;8.80;;;0.60;;
71941;SDS011;59997;53.300;-6.260;2023-09-30T06:31:18;8.35;;;0.98;;
71941;SDS011;59997;53.300;-6.260;2023-09-30T06:33:44;11.40;;;0.83;;
71941;SDS011;59997;53.300;-6.260;2023-09-30T06:36:10;9.23;;;1.15;;
71941;SDS011;59997;53.300;-6.260;2023-09-30T06:38:38;14.87;;;1.07;;
71941;SDS011;59997;53.300;-6.260;2023-09-30T06:41:06;11.00;;;1.00;;
71941;SDS011;59997;53.300;-6.260;2023-09-30T06:43:32;7.83;;;0.90;;
71941;SDS011;59997;53.300;-6.260;2023-09-30T06:45:58;7.63;;;1.08;;
71941;SDS011;59997;53.300;-6.260;2023-09-30T06:48:23;9.73;;;0.97;;
71941;SDS011;59997;53.300;-6.260;2023-09-30T06:50:49;7.82;;;1.23;;
71941;SDS011;59997;53.300;-6.260;2023-09-30T06:53:15;10.45;;;0.93;;
71941;SDS011;59997;53.300;-6.260;2023-09-30T06:55:42;8.23;;;0.90;;
71941;SDS011;59997;53.300;-6.260;2023-09-30T06:58:10;8.35;;;0.80;;
71941;SDS011;59997;53.300;-6.260;2023-09-30T07:00:37;8.15;;;0.82;;
71941;SDS011;59997;53.300;-6.260;2023-09-30T07:03:03;12.27;;;1.00;;
71941;SDS011;59997;53.300;-6.260;2023-09-30T07:05:29;8.60;;;0.93;;
71941;SDS011;59997;53.300;-6.260;2023-09-30T07:07:54;7.40;;;1.10;;
71941;SDS011;59997;53.300;-6.260;2023-09-30T07:10:20;10.18;;;1.25;;
71941;SDS011;59997;53.300;-6.260;2023-09-30T07:12:45;7.17;;;0.97;;
71941;SDS011;59997;53.300;-6.260;2023-09-30T07:15:11;10.23;;;1.07;;
71941;SDS011;59997;53.300;-6.260;2023-09-30T07:17:36;7.72;;;1.30;;
71941;SDS011;59997;53.300;-6.260;2023-09-30T07:20:02;7.73;;;1.10;;
71941;SDS011;59997;53.300;-6.260;2023-09-30T07:22:30;7.82;;;1.17;;
71941;SDS011;59997;53.300;-6.260;2023-09-30T07:24:56;8.20;;;1.08;;
71941;SDS011;59997;53.300;-6.260;2023-09-30T07:27:22;6.00;;;1.10;;
71941;SDS011;59997;53.300;-6.260;2023-09-30T07:29:48;7.57;;;1.10;;
71941;SDS011;59997;53.300;-6.260;2023-09-30T07:32:14;8.15;;;1.08;;
71941;SDS011;59997;53.300;-6.260;2023-09-30T07:34:40;10.73;;;1.37;;
71941;SDS011;59997;53.300;-6.260;2023-09-30T07:37:05;9.93;;;1.10;;
71941;SDS011;59997;53.300;-6.260;2023-09-30T07:39:31;12.82;;;1.55;;
71941;SDS011;59997;53.300;-6.260;2023-09-30T07:41:56;14.63;;;2.40;;
71941;SDS011;59997;53.300;-6.260;2023-09-30T07:44:22;7.27;;;1.00;;
71941;SDS011;59997;53.300;-6.260;2023-09-30T07:46:47;12.60;;;1.60;;
71941;SDS011;59997;53.300;-6.260;2023-09-30T07:49:13;14.13;;;1.70;;
71941;SDS011;59997;53.300;-6.260;2023-09-30T07:51:38;15.13;;;2.20;;
71941;SDS011;59997;53.300;-6.260;2023-09-30T07:54:06;13.15;;;1.83;;
71941;SDS011;59997;53.300;-6.260;2023-09-30T07:56:32;13.15;;;2.42;;
71941;SDS011;59997;53.300;-6.260;2023-09-30T07:58:57;13.20;;;2.70;;
71941;SDS011;59997;53.300;-6.260;2023-09-30T08:01:23;53.13;;;19.13;;
71941;SDS011;59997;53.300;-6.260;2023-09-30T08:03:48;43.23;;;16.83;;
71941;SDS011;59997;53.300;-6.260;2023-09-30T08:06:14;40.65;;;13.93;;
71941;SDS011;59997;53.300;-6.260;2023-09-30T08:08:39;30.33;;;11.87;;
71941;SDS011;59997;53.300;-6.260;2023-09-30T08:11:05;26.87;;;9.17;;
71941;SDS011;59997;53.300;-6.260;2023-09-30T08:13:31;22.58;;;6.53;;
71941;SDS011;59997;53.300;-6.260;2023-09-30T08:15:58;12.68;;;3.33;;
71941;SDS011;59997;53.300;-6.260;2023-09-30T08:18:26;12.32;;;2.90;;
71941;SDS011;59997;53.300;-6.260;2023-09-30T08:20:52;10.27;;;2.07;;
71941;SDS011;59997;53.300;-6.260;2023-09-30T08:23:17;11.90;;;2.07;;
71941;SDS011;59997;53.300;-6.260;2023-09-30T08:25:43;11.70;;;2.67;;
71941;SDS011;59997;53.300;-6.260;2023-09-30T08:28:09;9.82;;;1.20;;
71941;SDS011;59997;53.300;-6.260;2023-09-30T08:30:38;6.07;;;0.77;;
71941;SDS011;59997;53.300;-6.260;2023-09-30T08:33:03;7.37;;;1.10;;
71941;SDS011;59997;53.300;-6.260;2023-09-30T08:35:30;9.25;;;1.08;;
71941;SDS011;59997;53.300;-6.260;2023-09-30T08:38:00;9.40;;;1.00;;
71941;SDS011;59997;53.300;-6.260;2023-09-30T08:40:27;8.13;;;0.80;;
71941;SDS011;59997;53.300;-6.260;2023-09-30T08:42:52;11.33;;;1.03;;
71941;SDS011;59997;53.300;-6.260;2023-09-30T08:45:18;9.13;;;1.05;;
71941;SDS011;59997;53.300;-6.260;2023-09-30T08:47:44;9.27;;;1.20;;
71941;SDS011;59997;53.300;-6.260;2023-09-30T08:50:15;8.55;;;1.10;;
71941;SDS011;59997;53.300;-6.260;2023-09-30T08:52:41;6.50;;;1.02;;
71941;SDS011;59997;53.300;-6.260;2023-09-30T08:55:09;9.13;;;0.90;;
71941;SDS011;59997;53.300;-6.260;2023-09-30T08:57:42;9.30;;;1.05;;
71941;SDS011;59997;53.300;-6.260;2023-09-30T09:00:09;8.88;;;1.05;;
71941;SDS011;59997;53.300;-6.260;2023-09-30T09:02:37;10.65;;;1.00;;
71941;SDS011;59997;53.300;-6.260;2023-09-30T09:05:03;10.43;;;1.45;;
71941;SDS011;59997;53.300;-6.260;2023-09-30T09:07:29;7.70;;;1.10;;
71941;SDS011;59997;53.300;-6.260;2023-09-30T09:10:08;7.35;;;1.10;;
71941;SDS011;59997;53.300;-6.260;2023-09-30T09:12:38;7.10;;;1.00;;
71941;SDS011;59997;53.300;-6.260;2023-09-30T09:15:07;8.57;;;1.10;;
71941;SDS011;59997;53.300;-6.260;2023-09-30T09:17:44;9.98;;;1.00;;
71941;SDS011;59997;53.300;-6.260;2023-09-30T09:20:11;7.32;;;0.98;;
71941;SDS011;59997;53.300;-6.260;2023-09-30T09:22:43;7.05;;;0.95;;
71941;SDS011;59997;53.300;-6.260;2023-09-30T09:25:12;7.78;;;1.13;;
71941;SDS011;59997;53.300;-6.260;2023-09-30T09:27:38;10.03;;;1.10;;
71941;SDS011;59997;53.300;-6.260;2023-09-30T09:35:27;8.23;;;1.20;;
71941;SDS011;59997;53.300;-6.260;2023-09-30T09:40:34;13.55;;;1.40;;
71941;SDS011;59997;53.300;-6.260;2023-09-30T09:43:03;9.05;;;1.10;;
71941;SDS011;59997;53.300;-6.260;2023-09-30T09:45:30;8.57;;;1.27;;
71941;SDS011;59997;53.300;-6.260;2023-09-30T09:47:58;8.07;;;1.20;;
71941;SDS011;59997;53.300;-6.260;2023-09-30T09:50:23;10.10;;;1.30;;
71941;SDS011;59997;53.300;-6.260;2023-09-30T09:52:49;8.47;;;1.23;;
71941;SDS011;59997;53.300;-6.260;2023-09-30T09:55:19;8.07;;;1.10;;
71941;SDS011;59997;53.300;-6.260;2023-09-30T09:57:47;8.93;;;1.15;;
71941;SDS011;59997;53.300;-6.260;2023-09-30T10:00:15;7.88;;;1.42;;
71941;SDS011;59997;53.300;-6.260;2023-09-30T10:02:43;12.23;;;1.40;;
71941;SDS011;59997;53.300;-6.260;2023-09-30T10:05:11;10.73;;;1.13;;
71941;SDS011;59997;53.300;-6.260;2023-09-30T10:07:38;10.55;;;1.40;;
71941;SDS011;59997;53.300;-6.260;2023-09-30T10:10:10;14.00;;;1.15;;
71941;SDS011;59997;53.300;-6.260;2023-09-30T10:12:38;10.80;;;1.30;;
71941;SDS011;59997;53.300;-6.260;2023-09-30T10:20:42;14.85;;;1.42;;
71941;SDS011;59997;53.300;-6.260;2023-09-30T10:23:28;10.43;;;1.55;;
71941;SDS011;59997;53.300;-6.260;2023-09-30T10:28:33;9.03;;;1.27;;
71941;SDS011;59997;53.300;-6.260;2023-09-30T10:36:28;10.50;;;1.52;;
71941;SDS011;59997;53.300;-6.260;2023-09-30T10:38:57;10.55;;;1.30;;
71941;SDS011;59997;53.300;-6.260;2023-09-30T10:46:54;7.65;;;1.10;;
71941;SDS011;59997;53.300;-6.260;2023-09-30T10:51:47;11.47;;;1.60;;
71941;SDS011;59997;53.300;-6.260;2023-09-30T10:54:15;11.77;;;1.30;;
71941;SDS011;59997;53.300;-6.260;2023-09-30T10:56:49;13.57;;;1.50;;
71941;SDS011;59997;53.300;-6.260;2023-09-30T10:59:18;10.02;;;1.38;;
71941;SDS011;59997;53.300;-6.260;2023-09-30T11:01:44;11.02;;;1.40;;
71941;SDS011;59997;53.300;-6.260;2023-09-30T11:04:09;8.27;;;1.33;;
71941;SDS011;59997;53.300;-6.260;2023-09-30T11:06:39;9.68;;;1.45;;
71941;SDS011;59997;53.300;-6.260;2023-09-30T11:09:05;8.80;;;1.43;;
71941;SDS011;59997;53.300;-6.260;2023-09-30T11:11:38;9.82;;;1.60;;
71941;SDS011;59997;53.300;-6.260;2023-09-30T11:16:50;9.77;;;2.05;;
71941;SDS011;59997;53.300;-6.260;2023-09-30T11:19:17;10.82;;;1.75;;
71941;SDS011;59997;53.300;-6.260;2023-09-30T11:21:46;10.40;;;2.33;;
71941;SDS011;59997;53.300;-6.260;2023-09-30T11:24:13;14.82;;;2.50;;
71941;SDS011;59997;53.300;-6.260;2023-09-30T11:26:39;13.25;;;2.58;;
71941;SDS011;59997;53.300;-6.260;2023-09-30T11:29:11;11.38;;;2.38;;
71941;SDS011;59997;53.300;-6.260;2023-09-30T11:31:42;11.88;;;2.60;;
71941;SDS011;59997;53.300;-6.260;2023-09-30T11:34:12;11.50;;;2.27;;
71941;SDS011;59997;53.300;-6.260;2023-09-30T11:36:38;12.93;;;2.42;;
71941;SDS011;59997;53.300;-6.260;2023-09-30T11:39:08;9.55;;;2.22;;
71941;SDS011;59997;53.300;-6.260;2023-09-30T11:41:42;11.65;;;2.00;;
71941;SDS011;59997;53.300;-6.260;2023-09-30T11:44:11;8.55;;;2.42;;
71941;SDS011;59997;53.300;-6.260;2023-09-30T11:52:06;10.65;;;2.25;;
71941;SDS011;59997;53.300;-6.260;2023-09-30T11:54:34;9.77;;;2.25;;
71941;SDS011;59997;53.300;-6.260;2023-09-30T11:57:06;9.93;;;2.10;;
71941;SDS011;59997;53.300;-6.260;2023-09-30T11:59:34;9.87;;;1.83;;
71941;SDS011;59997;53.300;-6.260;2023-09-30T12:02:06;9.75;;;2.22;;
71941;SDS011;59997;53.300;-6.260;2023-09-30T12:04:32;10.70;;;2.20;;
71941;SDS011;59997;53.300;-6.260;2023-09-30T12:06:57;10.20;;;1.83;;
71941;SDS011;59997;53.300;-6.260;2023-09-30T12:09:23;7.07;;;1.30;;
71941;SDS011;59997;53.300;-6.260;2023-09-30T12:11:51;7.60;;;1.10;;
71941;SDS011;59997;53.300;-6.260;2023-09-30T12:14:17;5.70;;;1.07;;
71941;SDS011;59997;53.300;-6.260;2023-09-30T12:16:43;8.57;;;1.15;;
71941;SDS011;59997;53.300;-6.260;2023-09-30T12:19:12;5.50;;;0.70;;
71941;SDS011;59997;53.300;-6.260;2023-09-30T12:21:44;5.88;;;0.80;;
71941;SDS011;59997;53.300;-6.260;2023-09-30T12:24:16;6.03;;;0.90;;
71941;SDS011;59997;53.300;-6.260;2023-09-30T12:26:44;6.78;;;1.70;;
71941;SDS011;59997;53.300;-6.260;2023-09-30T12:29:16;7.43;;;1.10;;
71941;SDS011;59997;53.300;-6.260;2023-09-30T12:31:46;8.23;;;1.73;;
71941;SDS011;59997;53.300;-6.260;2023-09-30T12:34:13;7.20;;;1.00;;
71941;SDS011;59997;53.300;-6.260;2023-09-30T12:36:39;6.55;;;0.85;;
71941;SDS011;59997;53.300;-6.260;2023-09-30T12:39:05;8.48;;;0.80;;
71941;SDS011;59997;53.300;-6.260;2023-09-30T12:41:39;5.60;;;0.93;;
71941;SDS011;59997;53.300;-6.260;2023-09-30T12:44:05;10.30;;;1.00;;
71941;SDS011;59997;53.300;-6.260;2023-09-30T12:46:31;6.93;;;1.00;;
71941;SDS011;59997;53.300;-6.260;2023-09-30T12:48:59;6.88;;;1.00;;
71941;SDS011;59997;53.300;-6.260;2023-09-30T12:51:32;8.90;;;1.08;;
71941;SDS011;59997;53.300;-6.260;2023-09-30T12:53:58;6.15;;;0.93;;
71941;SDS011;59997;53.300;-6.260;2023-09-30T12:56:24;8.27;;;0.87;;
71941;SDS011;59997;53.300;-6.260;2023-09-30T12:58:50;4.93;;;0.77;;
71941;SDS011;59997;53.300;-6.260;2023-09-30T13:01:16;5.23;;;0.90;;
71941;SDS011;59997;53.300;-6.260;2023-09-30T13:03:43;5.97;;;0.83;;
71941;SDS011;59997;53.300;-6.260;2023-09-30T13:06:09;5.35;;;0.90;;
71941;SDS011;59997;53.300;-6.260;2023-09-30T13:08:35;6.23;;;0.80;;
71941;SDS011;59997;53.300;-6.260;2023-09-30T13:11:01;5.60;;;0.73;;
71941;SDS011;59997;53.300;-6.260;2023-09-30T13:13:27;7.15;;;0.70;;
71941;SDS011;59997;53.300;-6.260;2023-09-30T13:15:58;6.15;;;0.70;;
71941;SDS011;59997;53.300;-6.260;2023-09-30T13:18:24;5.60;;;0.73;;
71941;SDS011;59997;53.300;-6.260;2023-09-30T13:20:50;5.90;;;0.75;;
71941;SDS011;59997;53.300;-6.260;2023-09-30T13:23:17;5.57;;;0.70;;
71941;SDS011;59997;53.300;-6.260;2023-09-30T13:25:43;5.65;;;0.90;;
71941;SDS011;59997;53.300;-6.260;2023-09-30T13:28:09;5.53;;;0.88;;
71941;SDS011;59997;53.300;-6.260;2023-09-30T13:30:34;6.57;;;1.00;;
71941;SDS011;59997;53.300;-6.260;2023-09-30T13:33:00;4.90;;;0.80;;
71941;SDS011;59997;53.300;-6.260;2023-09-30T13:35:26;6.03;;;0.90;;
71941;SDS011;59997;53.300;-6.260;2023-09-30T13:37:52;6.33;;;0.90;;
71941;SDS011;59997;53.300;-6.260;2023-09-30T13:40:17;6.30;;;1.00;;
71941;SDS011;59997;53.300;-6.260;2023-09-30T13:42:43;6.90;;;0.90;;
71941;SDS011;59997;53.300;-6.260;2023-09-30T13:45:09;5.57;;;0.80;;
71941;SDS011;59997;53.300;-6.260;2023-09-30T13:47:35;5.10;;;0.55;;
71941;SDS011;59997;53.300;-6.260;2023-09-30T13:50:01;4.97;;;0.65;;
71941;SDS011;59997;53.300;-6.260;2023-09-30T13:52:29;4.82;;;0.80;;
71941;SDS011;59997;53.300;-6.260;2023-09-30T13:54:54;3.77;;;0.60;;
71941;SDS011;59997;53.300;-6.260;2023-09-30T13:57:20;5.47;;;0.63;;
71941;SDS011;59997;53.300;-6.260;2023-09-30T13:59:46;4.40;;;0.57;;
71941;SDS011;59997;53.300;-6.260;2023-09-30T14:02:12;3.40;;;0.50;;
71941;SDS011;59997;53.300;-6.260;2023-09-30T14:04:37;3.13;;;0.40;;
71941;SDS011;59997;53.300;-6.260;2023-09-30T14:07:03;4.38;;;0.57;;
71941;SDS011;59997;53.300;-6.260;2023-09-30T14:09:30;3.07;;;0.30;;
71941;SDS011;59997;53.300;-6.260;2023-09-30T14:11:56;3.20;;;0.40;;
71941;SDS011;59997;53.300;-6.260;2023-09-30T14:14:23;2.92;;;0.50;;
71941;SDS011;59997;53.300;-6.260;2023-09-30T14:16:49;3.08;;;0.35;;
71941;SDS011;59997;53.300;-6.260;2023-09-30T14:19:15;4.43;;;0.50;;
71941;SDS011;59997;53.300;-6.260;2023-09-30T14:21:40;4.00;;;0.50;;
71941;SDS011;59997;53.300;-6.260;2023-09-30T14:24:06;5.35;;;0.50;;
71941;SDS011;59997;53.300;-6.260;2023-09-30T14:26:32;3.00;;;0.40;;
71941;SDS011;59997;53.300;-6.260;2023-09-30T14:28:58;3.88;;;0.50;;
71941;SDS011;59997;53.300;-6.260;2023-09-30T14:31:23;3.70;;;0.70;;
71941;SDS011;59997;53.300;-6.260;2023-09-30T14:33:49;3.63;;;0.50;;
71941;SDS011;59997;53.300;-6.260;2023-09-30T14:36:16;3.08;;;0.40;;
71941;SDS011;59997;53.300;-6.260;2023-09-30T14:38:42;2.67;;;0.30;;
71941;SDS011;59997;53.300;-6.260;2023-09-30T14:41:10;5.17;;;0.50;;
71941;SDS011;59997;53.300;-6.260;2023-09-30T14:43:36;4.38;;;0.52;;
71941;SDS011;59997;53.300;-6.260;2023-09-30T14:46:01;3.17;;;0.40;;
71941;SDS011;59997;53.300;-6.260;2023-09-30T14:48:28;3.10;;;0.50;;
71941;SDS011;59997;53.300;-6.260;2023-09-30T14:50:54;3.47;;;0.60;;
71941;SDS011;59997;53.300;-6.260;2023-09-30T14:53:20;2.88;;;0.50;;
71941;SDS011;59997;53.300;-6.260;2023-09-30T14:55:45;3.63;;;0.50;;
71941;SDS011;59997;53.300;-6.260;2023-09-30T14:58:11;2.63;;;0.30;;
71941;SDS011;59997;53.300;-6.260;2023-09-30T15:00:36;4.20;;;0.60;;
71941;SDS011;59997;53.300;-6.260;2023-09-30T15:03:02;3.60;;;0.53;;